sensor_id;sensor_type;location;lat;lon;timestamp;P1;durP1;ratioP1;P2;durP2;ratioP2
59976;SDS011;45837;51.076;3.578;2024-01-06T00:01:50;4.03;;;1.65;;
59976;SDS011;45837;51.076;3.578;2024-01-06T00:04:16;4.32;;;1.20;;
59976;SDS011;45837;51.076;3.578;2024-01-06T00:06:41;3.92;;;1.35;;
59976;SDS011;45837;51.076;3.578;2024-01-06T00:09:07;4.18;;;1.10;;
59976;SDS011;45837;51.076;3.578;2024-01-06T00:11:33;2.30;;;1.02;;
59976;SDS011;45837;51.076;3.578;2024-01-06T00:13:59;3.00;;;1.08;;
59976;SDS011;45837;51.076;3.578;2024-01-06T00:16:25;3.22;;;1.10;;
59976;SDS011;45837;51.076;3.578;2024-01-06T00:18:51;4.18;;;1.27;;
59976;SDS011;45837;51.076;3.578;2024-01-06T00:21:17;2.63;;;1.05;;
59976;SDS011;45837;51.076;3.578;2024-01-06T00:23:42;3.85;;;1.10;;
59976;SDS011;45837;51.076;3.578;2024-01-06T00:26:11;4.03;;;1.15;;
59976;SDS011;45837;51.076;3.578;2024-01-06T00:28:38;3.05;;;1.23;;
59976;SDS011;45837;51.076;3.578;2024-01-06T00:31:05;2.83;;;1.13;;
59976;SDS011;45837;51.076;3.578;2024-01-06T00:33:31;2.72;;;1.15;;
59976;SDS011;45837;51.076;3.578;2024-01-06T00:35:57;4.90;;;1.58;;
59976;SDS011;45837;51.076;3.578;2024-01-06T00:38:23;2.03;;;1.02;;
59976;SDS011;45837;51.076;3.578;2024-01-06T00:40:49;4.05;;;0.98;;
59976;SDS011;45837;51.076;3.578;2024-01-06T00:43:15;2.15;;;0.90;;
59976;SDS011;45837;51.076;3.578;2024-01-06T00:45:41;3.78;;;1.30;;
59976;SDS011;45837;51.076;3.578;2024-01-06T00:48:07;2.75;;;1.08;;
59976;SDS011;45837;51.076;3.578;2024-01-06T00:50:32;3.65;;;1.10;;
59976;SDS011;45837;51.076;3.578;2024-01-06T00:52:59;2.70;;;1.10;;
59976;SDS011;45837;51.076;3.578;2024-01-06T00:55:24;3.40;;;1.30;;
59976;SDS011;45837;51.076;3.578;2024-01-06T00:57:51;3.85;;;1.05;;
59976;SDS011;45837;51.076;3.578;2024-01-06T01:00:16;5.97;;;1.58;;
59976;SDS011;45837;51.076;3.578;2024-01-06T01:02:42;2.63;;;1.08;;
59976;SDS011;45837;51.076;3.578;2024-01-06T01:05:08;2.47;;;1.10;;
59976;SDS011;45837;51.076;3.578;2024-01-06T01:07:35;3.25;;;1.20;;
59976;SDS011;45837;51.076;3.578;2024-01-06T01:10:01;2.08;;;1.08;;
59976;SDS011;45837;51.076;3.578;2024-01-06T01:12:27;3.08;;;1.20;;
59976;SDS011;45837;51.076;3.578;2024-01-06T01:14:53;3.40;;;1.02;;
59976;SDS011;45837;51.076;3.578;2024-01-06T01:17:19;3.75;;;1.10;;
59976;SDS011;45837;51.076;3.578;2024-01-06T01:19:45;3.30;;;1.27;;
59976;SDS011;45837;51.076;3.578;2024-01-06T01:22:11;3.03;;;1.20;;
59976;SDS011;45837;51.076;3.578;2024-01-06T01:24:37;3.78;;;1.35;;
59976;SDS011;45837;51.076;3.578;2024-01-06T01:27:03;1.75;;;1.02;;
59976;SDS011;45837;51.076;3.578;2024-01-06T01:29:30;1.88;;;0.82;;
59976;SDS011;45837;51.076;3.578;2024-01-06T01:31:56;5.72;;;1.33;;
59976;SDS011;45837;51.076;3.578;2024-01-06T01:34:22;1.95;;;0.88;;
59976;SDS011;45837;51.076;3.578;2024-01-06T01:36:47;2.33;;;1.10;;
59976;SDS011;45837;51.076;3.578;2024-01-06T01:39:13;1.55;;;0.95;;
59976;SDS011;45837;51.076;3.578;2024-01-06T01:41:39;1.60;;;1.10;;
59976;SDS011;45837;51.076;3.578;2024-01-06T01:44:06;3.17;;;1.10;;
59976;SDS011;45837;51.076;3.578;2024-01-06T01:46:32;3.58;;;1.38;;
59976;SDS011;45837;51.076;3.578;2024-01-06T01:48:59;2.00;;;1.00;;
59976;SDS011;45837;51.076;3.578;2024-01-06T01:51:27;3.60;;;0.93;;
59976;SDS011;45837;51.076;3.578;2024-01-06T01:53:54;2.15;;;1.00;;
59976;SDS011;45837;51.076;3.578;2024-01-06T01:56:24;1.67;;;0.80;;
59976;SDS011;45837;51.076;3.578;2024-01-06T01:58:51;3.10;;;1.17;;
59976;SDS011;45837;51.076;3.578;2024-01-06T02:01:18;3.30;;;1.25;;
59976;SDS011;45837;51.076;3.578;2024-01-06T02:03:44;2.78;;;1.00;;
59976;SDS011;45837;51.076;3.578;2024-01-06T02:06:11;2.97;;;1.02;;
59976;SDS011;45837;51.076;3.578;2024-01-06T02:08:37;2.25;;;0.90;;
59976;SDS011;45837;51.076;3.578;2024-01-06T02:11:04;3.28;;;1.08;;
59976;SDS011;45837;51.076;3.578;2024-01-06T02:13:34;2.47;;;1.00;;
59976;SDS011;45837;51.076;3.578;2024-01-06T02:16:01;3.03;;;1.10;;
59976;SDS011;45837;51.076;3.578;2024-01-06T02:18:28;5.15;;;0.85;;
59976;SDS011;45837;51.076;3.578;2024-01-06T02:20:56;2.00;;;1.02;;
59976;SDS011;45837;51.076;3.578;2024-01-06T02:23:24;2.42;;;1.00;;
59976;SDS011;45837;51.076;3.578;2024-01-06T02:25:51;1.67;;;0.93;;
59976;SDS011;45837;51.076;3.578;2024-01-06T02:28:17;3.00;;;1.42;;
59976;SDS011;45837;51.076;3.578;2024-01-06T02:30:43;1.80;;;0.95;;
59976;SDS011;45837;51.076;3.578;2024-01-06T02:33:09;2.35;;;1.08;;
59976;SDS011;45837;51.076;3.578;2024-01-06T02:35:35;2.55;;;1.00;;
59976;SDS011;45837;51.076;3.578;2024-01-06T02:38:01;1.88;;;0.75;;
59976;SDS011;45837;51.076;3.578;2024-01-06T02:40:27;2.08;;;0.88;;
59976;SDS011;45837;51.076;3.578;2024-01-06T02:42:54;3.47;;;1.20;;
59976;SDS011;45837;51.076;3.578;2024-01-06T02:45:20;3.72;;;1.52;;
59976;SDS011;45837;51.076;3.578;2024-01-06T02:47:45;2.17;;;1.02;;
59976;SDS011;45837;51.076;3.578;2024-01-06T02:50:11;2.15;;;1.00;;
59976;SDS011;45837;51.076;3.578;2024-01-06T02:52:37;1.48;;;0.80;;
59976;SDS011;45837;51.076;3.578;2024-01-06T02:55:03;4.15;;;1.40;;
59976;SDS011;45837;51.076;3.578;2024-01-06T02:57:30;2.53;;;1.02;;
59976;SDS011;45837;51.076;3.578;2024-01-06T02:59:56;4.03;;;0.80;;
59976;SDS011;45837;51.076;3.578;2024-01-06T03:02:22;2.80;;;1.02;;
59976;SDS011;45837;51.076;3.578;2024-01-06T03:04:48;3.38;;;0.90;;
59976;SDS011;45837;51.076;3.578;2024-01-06T03:07:14;1.58;;;0.85;;
59976;SDS011;45837;51.076;3.578;2024-01-06T03:09:40;2.33;;;0.90;;
59976;SDS011;45837;51.076;3.578;2024-01-06T03:12:06;1.75;;;0.75;;
59976;SDS011;45837;51.076;3.578;2024-01-06T03:14:36;2.22;;;1.00;;
59976;SDS011;45837;51.076;3.578;2024-01-06T03:17:02;1.70;;;0.75;;
59976;SDS011;45837;51.076;3.578;2024-01-06T03:19:30;1.73;;;0.80;;
59976;SDS011;45837;51.076;3.578;2024-01-06T03:21:56;2.00;;;0.95;;
59976;SDS011;45837;51.076;3.578;2024-01-06T03:24:22;2.58;;;1.50;;
59976;SDS011;45837;51.076;3.578;2024-01-06T03:26:50;1.58;;;0.85;;
59976;SDS011;45837;51.076;3.578;2024-01-06T03:29:16;3.05;;;0.90;;
59976;SDS011;45837;51.076;3.578;2024-01-06T03:31:45;2.25;;;1.10;;
59976;SDS011;45837;51.076;3.578;2024-01-06T03:34:12;1.83;;;1.00;;
59976;SDS011;45837;51.076;3.578;2024-01-06T03:36:38;4.03;;;1.05;;
59976;SDS011;45837;51.076;3.578;2024-01-06T03:39:04;1.98;;;0.80;;
59976;SDS011;45837;51.076;3.578;2024-01-06T03:41:31;2.97;;;0.80;;
59976;SDS011;45837;51.076;3.578;2024-01-06T03:43:57;2.40;;;0.80;;
59976;SDS011;45837;51.076;3.578;2024-01-06T03:46:23;2.35;;;0.90;;
59976;SDS011;45837;51.076;3.578;2024-01-06T03:48:49;2.47;;;0.80;;
59976;SDS011;45837;51.076;3.578;2024-01-06T03:51:15;3.30;;;1.10;;
59976;SDS011;45837;51.076;3.578;2024-01-06T03:53:41;1.35;;;0.80;;
59976;SDS011;45837;51.076;3.578;2024-01-06T03:56:07;1.30;;;0.60;;
59976;SDS011;45837;51.076;3.578;2024-01-06T03:58:33;1.70;;;0.85;;
59976;SDS011;45837;51.076;3.578;2024-01-06T04:00:59;2.03;;;0.88;;
59976;SDS011;45837;51.076;3.578;2024-01-06T04:03:25;2.58;;;0.98;;
59976;SDS011;45837;51.076;3.578;2024-01-06T04:05:51;2.53;;;1.00;;
59976;SDS011;45837;51.076;3.578;2024-01-06T04:08:18;1.83;;;0.85;;
59976;SDS011;45837;51.076;3.578;2024-01-06T04:10:44;3.53;;;1.08;;
59976;SDS011;45837;51.076;3.578;2024-01-06T04:13:10;2.95;;;0.85;;
59976;SDS011;45837;51.076;3.578;2024-01-06T04:15:37;2.22;;;1.17;;
59976;SDS011;45837;51.076;3.578;2024-01-06T04:18:03;2.53;;;1.10;;
59976;SDS011;45837;51.076;3.578;2024-01-06T04:20:30;3.30;;;0.90;;
59976;SDS011;45837;51.076;3.578;2024-01-06T04:22:57;2.30;;;0.73;;
59976;SDS011;45837;51.076;3.578;2024-01-06T04:25:23;2.17;;;0.82;;
59976;SDS011;45837;51.076;3.578;2024-01-06T04:27:49;1.90;;;0.80;;
59976;SDS011;45837;51.076;3.578;2024-01-06T04:30:15;1.15;;;0.70;;
59976;SDS011;45837;51.076;3.578;2024-01-06T04:32:42;1.58;;;0.80;;
59976;SDS011;45837;51.076;3.578;2024-01-06T04:35:09;1.98;;;0.80;;
59976;SDS011;45837;51.076;3.578;2024-01-06T04:37:35;2.08;;;0.85;;
59976;SDS011;45837;51.076;3.578;2024-01-06T04:40:01;2.08;;;1.00;;
59976;SDS011;45837;51.076;3.578;2024-01-06T04:42:29;2.67;;;1.00;;
59976;SDS011;45837;51.076;3.578;2024-01-06T04:44:55;2.25;;;1.17;;
59976;SDS011;45837;51.076;3.578;2024-01-06T04:47:21;1.95;;;0.80;;
59976;SDS011;45837;51.076;3.578;2024-01-06T04:49:47;1.70;;;0.80;;
59976;SDS011;45837;51.076;3.578;2024-01-06T04:52:12;2.63;;;1.00;;
59976;SDS011;45837;51.076;3.578;2024-01-06T04:54:38;2.15;;;1.00;;
59976;SDS011;45837;51.076;3.578;2024-01-06T04:57:04;2.10;;;0.88;;
59976;SDS011;45837;51.076;3.578;2024-01-06T04:59:30;1.92;;;0.90;;
59976;SDS011;45837;51.076;3.578;2024-01-06T05:01:57;2.03;;;0.80;;
59976;SDS011;45837;51.076;3.578;2024-01-06T05:04:23;1.80;;;0.80;;
59976;SDS011;45837;51.076;3.578;2024-01-06T05:06:53;1.23;;;0.80;;
59976;SDS011;45837;51.076;3.578;2024-01-06T05:09:19;1.38;;;0.98;;
59976;SDS011;45837;51.076;3.578;2024-01-06T05:11:45;1.92;;;1.05;;
59976;SDS011;45837;51.076;3.578;2024-01-06T05:14:11;1.98;;;1.02;;
59976;SDS011;45837;51.076;3.578;2024-01-06T05:16:37;2.15;;;0.98;;
59976;SDS011;45837;51.076;3.578;2024-01-06T05:19:03;1.80;;;1.00;;
59976;SDS011;45837;51.076;3.578;2024-01-06T05:21:29;1.42;;;0.77;;
59976;SDS011;45837;51.076;3.578;2024-01-06T05:23:56;2.00;;;0.90;;
59976;SDS011;45837;51.076;3.578;2024-01-06T05:26:22;2.38;;;0.82;;
59976;SDS011;45837;51.076;3.578;2024-01-06T05:28:48;1.20;;;0.70;;
59976;SDS011;45837;51.076;3.578;2024-01-06T05:31:14;1.77;;;1.08;;
59976;SDS011;45837;51.076;3.578;2024-01-06T05:33:40;1.63;;;0.70;;
59976;SDS011;45837;51.076;3.578;2024-01-06T05:36:06;1.63;;;0.70;;
59976;SDS011;45837;51.076;3.578;2024-01-06T05:38:32;2.20;;;0.80;;
59976;SDS011;45837;51.076;3.578;2024-01-06T05:40:58;1.23;;;0.73;;
59976;SDS011;45837;51.076;3.578;2024-01-06T05:43:24;1.00;;;0.70;;
59976;SDS011;45837;51.076;3.578;2024-01-06T05:45:50;2.00;;;0.95;;
59976;SDS011;45837;51.076;3.578;2024-01-06T05:48:16;1.75;;;0.80;;
59976;SDS011;45837;51.076;3.578;2024-01-06T05:50:42;3.33;;;0.88;;
59976;SDS011;45837;51.076;3.578;2024-01-06T05:53:08;2.15;;;0.90;;
59976;SDS011;45837;51.076;3.578;2024-01-06T05:55:35;1.30;;;0.70;;
59976;SDS011;45837;51.076;3.578;2024-01-06T05:58:01;3.72;;;0.65;;
59976;SDS011;45837;51.076;3.578;2024-01-06T06:00:27;1.48;;;0.80;;
59976;SDS011;45837;51.076;3.578;2024-01-06T06:02:56;1.00;;;0.63;;
59976;SDS011;45837;51.076;3.578;2024-01-06T06:05:22;1.90;;;0.70;;
59976;SDS011;45837;51.076;3.578;2024-01-06T06:07:48;1.95;;;0.70;;
59976;SDS011;45837;51.076;3.578;2024-01-06T06:10:14;1.75;;;0.70;;
59976;SDS011;45837;51.076;3.578;2024-01-06T06:12:46;2.60;;;1.00;;
59976;SDS011;45837;51.076;3.578;2024-01-06T06:15:12;1.23;;;0.60;;
59976;SDS011;45837;51.076;3.578;2024-01-06T06:17:38;2.25;;;0.90;;
59976;SDS011;45837;51.076;3.578;2024-01-06T06:20:05;1.60;;;0.93;;
59976;SDS011;45837;51.076;3.578;2024-01-06T06:22:33;1.65;;;0.93;;
59976;SDS011;45837;51.076;3.578;2024-01-06T06:24:59;1.02;;;0.65;;
59976;SDS011;45837;51.076;3.578;2024-01-06T06:27:25;1.08;;;0.80;;
59976;SDS011;45837;51.076;3.578;2024-01-06T06:29:52;1.33;;;0.75;;
59976;SDS011;45837;51.076;3.578;2024-01-06T06:32:18;2.38;;;0.70;;
59976;SDS011;45837;51.076;3.578;2024-01-06T06:34:44;1.65;;;0.93;;
59976;SDS011;45837;51.076;3.578;2024-01-06T06:37:10;1.30;;;0.70;;
59976;SDS011;45837;51.076;3.578;2024-01-06T06:39:36;1.42;;;0.80;;
59976;SDS011;45837;51.076;3.578;2024-01-06T06:42:02;2.28;;;0.90;;
59976;SDS011;45837;51.076;3.578;2024-01-06T06:44:29;1.20;;;0.75;;
59976;SDS011;45837;51.076;3.578;2024-01-06T06:46:55;1.70;;;0.90;;
59976;SDS011;45837;51.076;3.578;2024-01-06T06:49:21;1.55;;;0.80;;
59976;SDS011;45837;51.076;3.578;2024-01-06T06:51:47;1.77;;;0.60;;
59976;SDS011;45837;51.076;3.578;2024-01-06T06:54:14;1.80;;;0.75;;
59976;SDS011;45837;51.076;3.578;2024-01-06T06:56:41;1.60;;;0.80;;
59976;SDS011;45837;51.076;3.578;2024-01-06T06:59:07;1.48;;;0.88;;
59976;SDS011;45837;51.076;3.578;2024-01-06T07:01:33;1.65;;;0.90;;
59976;SDS011;45837;51.076;3.578;2024-01-06T07:04:00;2.63;;;1.13;;
59976;SDS011;45837;51.076;3.578;2024-01-06T07:06:27;2.22;;;0.80;;
59976;SDS011;45837;51.076;3.578;2024-01-06T07:08:54;1.30;;;0.75;;
59976;SDS011;45837;51.076;3.578;2024-01-06T07:11:20;2.15;;;0.80;;
59976;SDS011;45837;51.076;3.578;2024-01-06T07:13:46;1.10;;;0.70;;
59976;SDS011;45837;51.076;3.578;2024-01-06T07:16:12;2.25;;;0.80;;
59976;SDS011;45837;51.076;3.578;2024-01-06T07:18:38;0.70;;;0.60;;
59976;SDS011;45837;51.076;3.578;2024-01-06T07:21:04;1.95;;;0.70;;
59976;SDS011;45837;51.076;3.578;2024-01-06T07:23:33;1.35;;;0.80;;
59976;SDS011;45837;51.076;3.578;2024-01-06T07:26:00;1.05;;;0.80;;
59976;SDS011;45837;51.076;3.578;2024-01-06T07:28:26;1.30;;;0.70;;
59976;SDS011;45837;51.076;3.578;2024-01-06T07:30:52;1.27;;;0.70;;
59976;SDS011;45837;51.076;3.578;2024-01-06T07:33:18;2.08;;;0.68;;
59976;SDS011;45837;51.076;3.578;2024-01-06T07:35:44;1.45;;;0.73;;
59976;SDS011;45837;51.076;3.578;2024-01-06T07:38:11;1.92;;;0.93;;
59976;SDS011;45837;51.076;3.578;2024-01-06T07:40:37;0.77;;;0.60;;
59976;SDS011;45837;51.076;3.578;2024-01-06T07:43:03;1.52;;;0.70;;
59976;SDS011;45837;51.076;3.578;2024-01-06T07:45:30;1.35;;;0.88;;
59976;SDS011;45837;51.076;3.578;2024-01-06T07:47:57;1.17;;;0.77;;
59976;SDS011;45837;51.076;3.578;2024-01-06T07:50:23;1.48;;;0.73;;
59976;SDS011;45837;51.076;3.578;2024-01-06T07:52:49;2.25;;;0.93;;
59976;SDS011;45837;51.076;3.578;2024-01-06T07:55:15;2.28;;;0.90;;
59976;SDS011;45837;51.076;3.578;2024-01-06T07:57:42;1.50;;;0.73;;
59976;SDS011;45837;51.076;3.578;2024-01-06T08:00:09;5.25;;;1.17;;
59976;SDS011;45837;51.076;3.578;2024-01-06T08:02:38;2.60;;;0.85;;
59976;SDS011;45837;51.076;3.578;2024-01-06T08:05:04;3.38;;;1.20;;
59976;SDS011;45837;51.076;3.578;2024-01-06T08:07:32;7.53;;;1.63;;
59976;SDS011;45837;51.076;3.578;2024-01-06T08:09:58;9.60;;;1.50;;
59976;SDS011;45837;51.076;3.578;2024-01-06T08:12:24;5.50;;;1.20;;
59976;SDS011;45837;51.076;3.578;2024-01-06T08:14:50;4.25;;;1.48;;
59976;SDS011;45837;51.076;3.578;2024-01-06T08:17:17;8.32;;;1.60;;
59976;SDS011;45837;51.076;3.578;2024-01-06T08:19:43;11.00;;;1.73;;
59976;SDS011;45837;51.076;3.578;2024-01-06T08:22:11;10.82;;;1.35;;
59976;SDS011;45837;51.076;3.578;2024-01-06T08:24:37;2.67;;;1.17;;
59976;SDS011;45837;51.076;3.578;2024-01-06T08:27:03;5.45;;;1.50;;
59976;SDS011;45837;51.076;3.578;2024-01-06T08:29:30;4.72;;;1.10;;
59976;SDS011;45837;51.076;3.578;2024-01-06T08:31:56;3.45;;;1.17;;
59976;SDS011;45837;51.076;3.578;2024-01-06T08:34:22;13.43;;;1.33;;
59976;SDS011;45837;51.076;3.578;2024-01-06T08:36:48;9.38;;;1.63;;
59976;SDS011;45837;51.076;3.578;2024-01-06T08:39:14;8.20;;;1.33;;
59976;SDS011;45837;51.076;3.578;2024-01-06T08:41:40;6.82;;;1.50;;
59976;SDS011;45837;51.076;3.578;2024-01-06T08:44:06;6.80;;;1.27;;
59976;SDS011;45837;51.076;3.578;2024-01-06T08:46:32;7.85;;;1.60;;
59976;SDS011;45837;51.076;3.578;2024-01-06T08:48:58;11.35;;;2.33;;
59976;SDS011;45837;51.076;3.578;2024-01-06T08:51:25;16.67;;;1.92;;
59976;SDS011;45837;51.076;3.578;2024-01-06T08:53:51;12.45;;;2.28;;
59976;SDS011;45837;51.076;3.578;2024-01-06T08:56:18;7.55;;;1.60;;
59976;SDS011;45837;51.076;3.578;2024-01-06T08:58:44;13.68;;;1.65;;
59976;SDS011;45837;51.076;3.578;2024-01-06T09:01:10;13.82;;;1.67;;
59976;SDS011;45837;51.076;3.578;2024-01-06T09:03:36;21.52;;;2.50;;
59976;SDS011;45837;51.076;3.578;2024-01-06T09:06:02;20.00;;;1.95;;
59976;SDS011;45837;51.076;3.578;2024-01-06T09:08:29;12.90;;;1.40;;
59976;SDS011;45837;51.076;3.578;2024-01-06T09:10:55;18.08;;;2.15;;
59976;SDS011;45837;51.076;3.578;2024-01-06T09:13:22;8.68;;;1.35;;
59976;SDS011;45837;51.076;3.578;2024-01-06T09:15:49;10.00;;;1.50;;
59976;SDS011;45837;51.076;3.578;2024-01-06T09:18:16;9.27;;;2.22;;
59976;SDS011;45837;51.076;3.578;2024-01-06T09:20:42;16.58;;;2.13;;
59976;SDS011;45837;51.076;3.578;2024-01-06T09:23:08;18.55;;;2.55;;
59976;SDS011;45837;51.076;3.578;2024-01-06T09:25:35;12.02;;;1.98;;
59976;SDS011;45837;51.076;3.578;2024-01-06T09:28:01;11.02;;;1.75;;
59976;SDS011;45837;51.076;3.578;2024-01-06T09:30:27;13.68;;;1.70;;
59976;SDS011;45837;51.076;3.578;2024-01-06T09:32:53;13.98;;;2.15;;
59976;SDS011;45837;51.076;3.578;2024-01-06T09:35:19;14.50;;;2.50;;
59976;SDS011;45837;51.076;3.578;2024-01-06T09:37:45;30.02;;;2.88;;
59976;SDS011;45837;51.076;3.578;2024-01-06T09:40:11;14.25;;;2.10;;
59976;SDS011;45837;51.076;3.578;2024-01-06T09:42:39;21.75;;;2.67;;
59976;SDS011;45837;51.076;3.578;2024-01-06T09:45:05;9.73;;;2.10;;
59976;SDS011;45837;51.076;3.578;2024-01-06T09:47:33;17.15;;;2.35;;
59976;SDS011;45837;51.076;3.578;2024-01-06T09:50:00;11.05;;;1.50;;
59976;SDS011;45837;51.076;3.578;2024-01-06T09:52:29;13.43;;;2.30;;
59976;SDS011;45837;51.076;3.578;2024-01-06T09:54:58;10.30;;;1.83;;
59976;SDS011;45837;51.076;3.578;2024-01-06T09:57:25;12.07;;;2.28;;
59976;SDS011;45837;51.076;3.578;2024-01-06T09:59:52;9.43;;;1.83;;
59976;SDS011;45837;51.076;3.578;2024-01-06T10:02:18;9.05;;;1.30;;
59976;SDS011;45837;51.076;3.578;2024-01-06T10:04:45;13.02;;;2.33;;
59976;SDS011;45837;51.076;3.578;2024-01-06T10:07:11;11.93;;;2.50;;
59976;SDS011;45837;51.076;3.578;2024-01-06T10:09:40;12.88;;;1.70;;
59976;SDS011;45837;51.076;3.578;2024-01-06T10:12:07;6.78;;;1.70;;
59976;SDS011;45837;51.076;3.578;2024-01-06T10:14:33;4.43;;;1.50;;
59976;SDS011;45837;51.076;3.578;2024-01-06T10:16:59;13.10;;;2.28;;
59976;SDS011;45837;51.076;3.578;2024-01-06T10:19:25;9.00;;;2.13;;
59976;SDS011;45837;51.076;3.578;2024-01-06T10:21:51;14.63;;;2.13;;
59976;SDS011;45837;51.076;3.578;2024-01-06T10:24:18;8.35;;;2.28;;
59976;SDS011;45837;51.076;3.578;2024-01-06T10:26:47;5.15;;;1.83;;
59976;SDS011;45837;51.076;3.578;2024-01-06T10:29:13;8.65;;;2.20;;
59976;SDS011;45837;51.076;3.578;2024-01-06T10:31:39;11.10;;;1.88;;
59976;SDS011;45837;51.076;3.578;2024-01-06T10:34:05;11.30;;;2.10;;
59976;SDS011;45837;51.076;3.578;2024-01-06T10:36:31;7.32;;;2.08;;
59976;SDS011;45837;51.076;3.578;2024-01-06T10:38:57;11.93;;;2.20;;
59976;SDS011;45837;51.076;3.578;2024-01-06T10:41:24;9.68;;;2.10;;
59976;SDS011;45837;51.076;3.578;2024-01-06T10:43:50;10.35;;;2.38;;
59976;SDS011;45837;51.076;3.578;2024-01-06T10:46:18;12.10;;;2.33;;
59976;SDS011;45837;51.076;3.578;2024-01-06T10:48:44;9.02;;;2.20;;
59976;SDS011;45837;51.076;3.578;2024-01-06T10:51:12;17.85;;;3.65;;
59976;SDS011;45837;51.076;3.578;2024-01-06T10:53:40;10.57;;;2.55;;
59976;SDS011;45837;51.076;3.578;2024-01-06T10:56:07;29.55;;;9.48;;
59976;SDS011;45837;51.076;3.578;2024-01-06T10:58:35;46.83;;;13.75;;
59976;SDS011;45837;51.076;3.578;2024-01-06T11:01:08;36.03;;;11.38;;
59976;SDS011;45837;51.076;3.578;2024-01-06T11:03:35;35.95;;;9.10;;
59976;SDS011;45837;51.076;3.578;2024-01-06T11:06:03;33.15;;;10.45;;
59976;SDS011;45837;51.076;3.578;2024-01-06T11:08:31;34.50;;;11.75;;
59976;SDS011;45837;51.076;3.578;2024-01-06T11:11:01;32.67;;;10.80;;
59976;SDS011;45837;51.076;3.578;2024-01-06T11:13:29;48.50;;;12.68;;
59976;SDS011;45837;51.076;3.578;2024-01-06T11:15:55;33.47;;;11.38;;
59976;SDS011;45837;51.076;3.578;2024-01-06T11:18:34;28.08;;;10.25;;
59976;SDS011;45837;51.076;3.578;2024-01-06T11:26:55;25.65;;;9.73;;
59976;SDS011;45837;51.076;3.578;2024-01-06T11:29:22;35.70;;;8.95;;
59976;SDS011;45837;51.076;3.578;2024-01-06T11:34:49;27.42;;;7.35;;
59976;SDS011;45837;51.076;3.578;2024-01-06T11:37:27;28.73;;;8.23;;
59976;SDS011;45837;51.076;3.578;2024-01-06T11:42:46;20.35;;;6.18;;
59976;SDS011;45837;51.076;3.578;2024-01-06T11:45:13;18.20;;;4.60;;
59976;SDS011;45837;51.076;3.578;2024-01-06T11:47:40;14.20;;;5.10;;
59976;SDS011;45837;51.076;3.578;2024-01-06T11:50:16;15.45;;;5.00;;
59976;SDS011;45837;51.076;3.578;2024-01-06T11:52:42;12.63;;;4.50;;
59976;SDS011;45837;51.076;3.578;2024-01-06T11:55:08;13.75;;;4.20;;
59976;SDS011;45837;51.076;3.578;2024-01-06T11:57:35;12.93;;;4.03;;
59976;SDS011;45837;51.076;3.578;2024-01-06T12:00:00;11.93;;;4.45;;
59976;SDS011;45837;51.076;3.578;2024-01-06T12:02:32;14.85;;;4.15;;
59976;SDS011;45837;51.076;3.578;2024-01-06T12:04:57;17.75;;;3.83;;
59976;SDS011;45837;51.076;3.578;2024-01-06T12:07:23;10.35;;;3.95;;
59976;SDS011;45837;51.076;3.578;2024-01-06T12:10:00;14.95;;;3.63;;
59976;SDS011;45837;51.076;3.578;2024-01-06T12:12:27;8.43;;;3.20;;
59976;SDS011;45837;51.076;3.578;2024-01-06T12:14:53;12.18;;;3.40;;
59976;SDS011;45837;51.076;3.578;2024-01-06T12:17:19;8.23;;;3.28;;
59976;SDS011;45837;51.076;3.578;2024-01-06T12:19:46;11.48;;;3.50;;
59976;SDS011;45837;51.076;3.578;2024-01-06T12:22:14;8.85;;;2.67;;
59976;SDS011;45837;51.076;3.578;2024-01-06T12:24:41;6.20;;;2.55;;
59976;SDS011;45837;51.076;3.578;2024-01-06T12:27:08;8.70;;;2.83;;
59976;SDS011;45837;51.076;3.578;2024-01-06T12:29:40;9.80;;;2.90;;
59976;SDS011;45837;51.076;3.578;2024-01-06T12:32:06;16.77;;;2.55;;
59976;SDS011;45837;51.076;3.578;2024-01-06T12:34:34;7.20;;;2.22;;
59976;SDS011;45837;51.076;3.578;2024-01-06T12:37:00;9.40;;;3.13;;
59976;SDS011;45837;51.076;3.578;2024-01-06T12:39:29;8.05;;;2.05;;
59976;SDS011;45837;51.076;3.578;2024-01-06T12:41:56;4.78;;;2.00;;
59976;SDS011;45837;51.076;3.578;2024-01-06T12:44:22;4.15;;;1.52;;
59976;SDS011;45837;51.076;3.578;2024-01-06T12:46:50;8.13;;;2.00;;
59976;SDS011;45837;51.076;3.578;2024-01-06T12:49:16;5.07;;;2.03;;
59976;SDS011;45837;51.076;3.578;2024-01-06T12:51:42;7.25;;;2.50;;
59976;SDS011;45837;51.076;3.578;2024-01-06T12:54:08;4.60;;;1.88;;
59976;SDS011;45837;51.076;3.578;2024-01-06T12:56:34;4.97;;;1.80;;
59976;SDS011;45837;51.076;3.578;2024-01-06T12:59:00;5.88;;;1.83;;
59976;SDS011;45837;51.076;3.578;2024-01-06T13:01:26;6.40;;;2.45;;
59976;SDS011;45837;51.076;3.578;2024-01-06T13:03:52;6.05;;;1.90;;
59976;SDS011;45837;51.076;3.578;2024-01-06T13:06:19;4.78;;;1.85;;
59976;SDS011;45837;51.076;3.578;2024-01-06T13:08:45;4.72;;;1.88;;
59976;SDS011;45837;51.076;3.578;2024-01-06T13:11:12;4.85;;;2.00;;
59976;SDS011;45837;51.076;3.578;2024-01-06T13:13:38;6.53;;;1.90;;
59976;SDS011;45837;51.076;3.578;2024-01-06T13:16:04;6.38;;;1.90;;
59976;SDS011;45837;51.076;3.578;2024-01-06T13:18:31;5.13;;;1.77;;
59976;SDS011;45837;51.076;3.578;2024-01-06T13:20:57;5.20;;;1.75;;
59976;SDS011;45837;51.076;3.578;2024-01-06T13:23:23;9.43;;;2.30;;
59976;SDS011;45837;51.076;3.578;2024-01-06T13:25:49;5.32;;;1.75;;
59976;SDS011;45837;51.076;3.578;2024-01-06T13:28:14;4.78;;;1.70;;
59976;SDS011;45837;51.076;3.578;2024-01-06T13:30:40;4.72;;;1.70;;
59976;SDS011;45837;51.076;3.578;2024-01-06T13:33:07;5.32;;;1.60;;
59976;SDS011;45837;51.076;3.578;2024-01-06T13:35:35;5.20;;;1.58;;
59976;SDS011;45837;51.076;3.578;2024-01-06T13:38:02;4.20;;;1.67;;
59976;SDS011;45837;51.076;3.578;2024-01-06T13:40:31;5.65;;;2.00;;
59976;SDS011;45837;51.076;3.578;2024-01-06T13:42:57;4.88;;;1.85;;
59976;SDS011;45837;51.076;3.578;2024-01-06T13:45:24;4.80;;;1.92;;
59976;SDS011;45837;51.076;3.578;2024-01-06T13:47:50;7.35;;;2.05;;
59976;SDS011;45837;51.076;3.578;2024-01-06T13:50:16;5.18;;;1.90;;
59976;SDS011;45837;51.076;3.578;2024-01-06T13:52:43;4.60;;;1.80;;
59976;SDS011;45837;51.076;3.578;2024-01-06T13:55:10;5.28;;;1.50;;
59976;SDS011;45837;51.076;3.578;2024-01-06T13:57:36;5.07;;;1.90;;
59976;SDS011;45837;51.076;3.578;2024-01-06T14:00:07;3.85;;;1.70;;
59976;SDS011;45837;51.076;3.578;2024-01-06T14:02:39;5.53;;;1.90;;
59976;SDS011;45837;51.076;3.578;2024-01-06T14:05:06;4.10;;;1.88;;
59976;SDS011;45837;51.076;3.578;2024-01-06T14:07:34;5.85;;;1.90;;
59976;SDS011;45837;51.076;3.578;2024-01-06T14:10:01;4.63;;;1.60;;
59976;SDS011;45837;51.076;3.578;2024-01-06T14:12:28;5.20;;;2.08;;
59976;SDS011;45837;51.076;3.578;2024-01-06T14:14:55;4.32;;;1.50;;
59976;SDS011;45837;51.076;3.578;2024-01-06T14:17:21;4.72;;;1.40;;
59976;SDS011;45837;51.076;3.578;2024-01-06T14:19:47;3.15;;;1.58;;
59976;SDS011;45837;51.076;3.578;2024-01-06T14:22:13;3.42;;;1.55;;
59976;SDS011;45837;51.076;3.578;2024-01-06T14:24:40;4.32;;;1.48;;
59976;SDS011;45837;51.076;3.578;2024-01-06T14:27:06;3.80;;;1.60;;
59976;SDS011;45837;51.076;3.578;2024-01-06T14:29:32;2.88;;;1.45;;
59976;SDS011;45837;51.076;3.578;2024-01-06T14:31:57;3.38;;;1.70;;
59976;SDS011;45837;51.076;3.578;2024-01-06T14:34:23;3.03;;;1.73;;
59976;SDS011;45837;51.076;3.578;2024-01-06T14:36:50;4.40;;;1.60;;
59976;SDS011;45837;51.076;3.578;2024-01-06T14:39:16;3.60;;;1.50;;
59976;SDS011;45837;51.076;3.578;2024-01-06T14:41:42;4.68;;;1.52;;
59976;SDS011;45837;51.076;3.578;2024-01-06T14:44:08;2.85;;;1.20;;
59976;SDS011;45837;51.076;3.578;2024-01-06T14:46:34;3.50;;;1.52;;
59976;SDS011;45837;51.076;3.578;2024-01-06T14:49:03;3.10;;;1.40;;
59976;SDS011;45837;51.076;3.578;2024-01-06T14:51:29;3.22;;;1.45;;
59976;SDS011;45837;51.076;3.578;2024-01-06T14:53:55;2.70;;;1.30;;